sensor_id;sensor_type;location;lat;lon;timestamp;P1;durP1;ratioP1;P2;durP2;ratioP2
55316;SDS011;41178;48.956;8.130;2023-06-22T00:00:08;5.93;;;4.95;;
55316;SDS011;41178;48.956;8.130;2023-06-22T00:05:13;6.38;;;5.22;;
55316;SDS011;41178;48.956;8.130;2023-06-22T00:10:15;7.93;;;5.45;;
55316;SDS011;41178;48.956;8.130;2023-06-22T00:15:17;6.32;;;5.60;;
55316;SDS011;41178;48.956;8.130;2023-06-22T00:20:18;10.05;;;6.63;;
55316;SDS011;41178;48.956;8.130;2023-06-22T00:25:20;10.48;;;7.32;;
55316;SDS011;41178;48.956;8.130;2023-06-22T00:30:22;9.70;;;6.80;;
55316;SDS011;41178;48.956;8.130;2023-06-22T00:35:24;8.13;;;6.72;;
55316;SDS011;41178;48.956;8.130;2023-06-22T00:40:31;9.25;;;7.57;;
55316;SDS011;41178;48.956;8.130;2023-06-22T00:45:33;7.95;;;7.03;;
55316;SDS011;41178;48.956;8.130;2023-06-22T00:50:35;9.32;;;7.05;;
55316;SDS011;41178;48.956;8.130;2023-06-22T00:55:38;9.82;;;7.00;;
55316;SDS011;41178;48.956;8.130;2023-06-22T01:00:45;7.38;;;6.65;;
55316;SDS011;41178;48.956;8.130;2023-06-22T01:05:46;7.93;;;6.90;;
55316;SDS011;41178;48.956;8.130;2023-06-22T01:10:52;7.45;;;6.65;;
55316;SDS011;41178;48.956;8.130;2023-06-22T01:16:08;8.63;;;7.00;;
55316;SDS011;41178;48.956;8.130;2023-06-22T01:21:17;7.07;;;6.25;;
55316;SDS011;41178;48.956;8.130;2023-06-22T01:26:24;8.25;;;5.70;;
55316;SDS011;41178;48.956;8.130;2023-06-22T01:31:47;7.97;;;6.13;;
55316;SDS011;41178;48.956;8.130;2023-06-22T01:36:51;10.40;;;6.28;;
55316;SDS011;41178;48.956;8.130;2023-06-22T01:41:54;8.48;;;6.95;;
55316;SDS011;41178;48.956;8.130;2023-06-22T01:46:56;9.93;;;7.70;;
55316;SDS011;41178;48.956;8.130;2023-06-22T01:51:58;8.43;;;7.53;;
55316;SDS011;41178;48.956;8.130;2023-06-22T01:57:00;8.13;;;7.32;;
55316;SDS011;41178;48.956;8.130;2023-06-22T02:02:10;9.60;;;7.43;;
55316;SDS011;41178;48.956;8.130;2023-06-22T02:07:14;8.45;;;7.30;;
55316;SDS011;41178;48.956;8.130;2023-06-22T02:12:21;9.55;;;7.22;;
55316;SDS011;41178;48.956;8.130;2023-06-22T02:17:25;8.63;;;7.70;;
55316;SDS011;41178;48.956;8.130;2023-06-22T02:22:27;8.60;;;7.10;;
55316;SDS011;41178;48.956;8.130;2023-06-22T02:27:29;9.55;;;7.82;;
55316;SDS011;41178;48.956;8.130;2023-06-22T02:32:31;8.88;;;7.88;;
55316;SDS011;41178;48.956;8.130;2023-06-22T02:37:38;9.50;;;7.53;;
55316;SDS011;41178;48.956;8.130;2023-06-22T02:42:43;9.13;;;8.10;;
55316;SDS011;41178;48.956;8.130;2023-06-22T02:47:45;9.32;;;8.32;;
55316;SDS011;41178;48.956;8.130;2023-06-22T02:52:47;8.88;;;7.97;;
55316;SDS011;41178;48.956;8.130;2023-06-22T02:57:48;9.02;;;8.13;;
55316;SDS011;41178;48.956;8.130;2023-06-22T03:02:53;9.50;;;8.00;;
55316;SDS011;41178;48.956;8.130;2023-06-22T03:07:55;9.85;;;7.93;;
55316;SDS011;41178;48.956;8.130;2023-06-22T03:12:57;11.77;;;7.93;;
55316;SDS011;41178;48.956;8.130;2023-06-22T03:17:59;9.75;;;8.75;;
55316;SDS011;41178;48.956;8.130;2023-06-22T03:23:01;10.80;;;8.63;;
55316;SDS011;41178;48.956;8.130;2023-06-22T03:28:03;11.63;;;8.05;;
55316;SDS011;41178;48.956;8.130;2023-06-22T03:33:05;10.27;;;8.27;;
55316;SDS011;41178;48.956;8.130;2023-06-22T03:38:06;9.77;;;8.77;;
55316;SDS011;41178;48.956;8.130;2023-06-22T03:43:08;11.05;;;8.40;;
55316;SDS011;41178;48.956;8.130;2023-06-22T03:48:11;9.85;;;8.00;;
55316;SDS011;41178;48.956;8.130;2023-06-22T03:53:13;9.55;;;8.48;;
55316;SDS011;41178;48.956;8.130;2023-06-22T03:58:15;11.20;;;8.35;;
55316;SDS011;41178;48.956;8.130;2023-06-22T04:03:18;8.82;;;7.88;;
55316;SDS011;41178;48.956;8.130;2023-06-22T04:08:20;9.30;;;7.88;;
55316;SDS011;41178;48.956;8.130;2023-06-22T04:13:22;9.00;;;7.93;;
55316;SDS011;41178;48.956;8.130;2023-06-22T04:18:24;11.98;;;8.27;;
55316;SDS011;41178;48.956;8.130;2023-06-22T04:23:26;10.75;;;9.05;;
55316;SDS011;41178;48.956;8.130;2023-06-22T04:28:27;10.25;;;8.20;;
55316;SDS011;41178;48.956;8.130;2023-06-22T04:33:30;9.65;;;7.53;;
55316;SDS011;41178;48.956;8.130;2023-06-22T04:38:32;10.45;;;7.43;;
55316;SDS011;41178;48.956;8.130;2023-06-22T04:43:34;11.52;;;7.47;;
55316;SDS011;41178;48.956;8.130;2023-06-22T04:48:36;9.00;;;7.70;;
55316;SDS011;41178;48.956;8.130;2023-06-22T04:53:37;11.23;;;7.97;;
55316;SDS011;41178;48.956;8.130;2023-06-22T04:58:42;12.00;;;7.65;;
55316;SDS011;41178;48.956;8.130;2023-06-22T05:05:22;10.13;;;7.93;;
55316;SDS011;41178;48.956;8.130;2023-06-22T05:10:24;11.95;;;8.38;;
55316;SDS011;41178;48.956;8.130;2023-06-22T05:15:26;11.25;;;8.02;;
55316;SDS011;41178;48.956;8.130;2023-06-22T05:20:31;10.15;;;8.35;;
55316;SDS011;41178;48.956;8.130;2023-06-22T05:25:35;11.82;;;8.20;;
55316;SDS011;41178;48.956;8.130;2023-06-22T05:30:37;9.90;;;8.00;;
55316;SDS011;41178;48.956;8.130;2023-06-22T05:35:39;11.15;;;8.65;;
55316;SDS011;41178;48.956;8.130;2023-06-22T05:40:41;10.88;;;8.52;;
55316;SDS011;41178;48.956;8.130;2023-06-22T05:45:43;10.55;;;8.32;;
55316;SDS011;41178;48.956;8.130;2023-06-22T05:50:45;9.07;;;7.88;;
55316;SDS011;41178;48.956;8.130;2023-06-22T05:55:47;8.93;;;7.40;;
55316;SDS011;41178;48.956;8.130;2023-06-22T06:00:48;7.95;;;7.15;;
55316;SDS011;41178;48.956;8.130;2023-06-22T06:05:50;8.82;;;7.93;;
55316;SDS011;41178;48.956;8.130;2023-06-22T06:10:52;13.02;;;8.38;;
55316;SDS011;41178;48.956;8.130;2023-06-22T06:15:55;10.48;;;7.82;;
55316;SDS011;41178;48.956;8.130;2023-06-22T06:20:58;9.55;;;8.43;;
55316;SDS011;41178;48.956;8.130;2023-06-22T06:26:00;9.55;;;7.75;;
55316;SDS011;41178;48.956;8.130;2023-06-22T06:31:02;9.13;;;7.78;;
55316;SDS011;41178;48.956;8.130;2023-06-22T06:36:08;9.07;;;7.43;;
55316;SDS011;41178;48.956;8.130;2023-06-22T06:41:10;9.20;;;7.47;;
55316;SDS011;41178;48.956;8.130;2023-06-22T06:46:12;10.98;;;8.38;;
55316;SDS011;41178;48.956;8.130;2023-06-22T06:51:13;11.60;;;7.47;;
55316;SDS011;41178;48.956;8.130;2023-06-22T06:56:15;8.63;;;7.72;;
55316;SDS011;41178;48.956;8.130;2023-06-22T07:01:18;9.27;;;7.90;;
55316;SDS011;41178;48.956;8.130;2023-06-22T07:06:23;10.23;;;8.00;;
55316;SDS011;41178;48.956;8.130;2023-06-22T07:11:29;8.70;;;7.43;;
55316;SDS011;41178;48.956;8.130;2023-06-22T07:16:30;9.38;;;7.90;;
55316;SDS011;41178;48.956;8.130;2023-06-22T07:21:32;10.85;;;7.13;;
55316;SDS011;41178;48.956;8.130;2023-06-22T07:26:34;8.75;;;7.43;;
55316;SDS011;41178;48.956;8.130;2023-06-22T07:31:36;10.23;;;7.80;;
55316;SDS011;41178;48.956;8.130;2023-06-22T07:36:38;11.38;;;7.45;;
55316;SDS011;41178;48.956;8.130;2023-06-22T07:41:40;10.45;;;7.25;;
55316;SDS011;41178;48.956;8.130;2023-06-22T07:46:42;9.85;;;7.35;;
55316;SDS011;41178;48.956;8.130;2023-06-22T07:51:44;13.48;;;8.00;;
55316;SDS011;41178;48.956;8.130;2023-06-22T07:56:46;9.05;;;7.15;;
55316;SDS011;41178;48.956;8.130;2023-06-22T08:01:48;13.15;;;7.68;;
55316;SDS011;41178;48.956;8.130;2023-06-22T08:06:50;10.18;;;7.53;;
55316;SDS011;41178;48.956;8.130;2023-06-22T08:11:52;8.95;;;7.05;;
55316;SDS011;41178;48.956;8.130;2023-06-22T08:16:54;9.82;;;7.28;;
55316;SDS011;41178;48.956;8.130;2023-06-22T08:21:56;8.50;;;7.25;;
55316;SDS011;41178;48.956;8.130;2023-06-22T08:26:58;13.60;;;6.82;;
55316;SDS011;41178;48.956;8.130;2023-06-22T08:32:00;7.55;;;6.47;;
55316;SDS011;41178;48.956;8.130;2023-06-22T08:37:02;9.55;;;6.63;;
55316;SDS011;41178;48.956;8.130;2023-06-22T08:42:07;10.10;;;7.25;;
55316;SDS011;41178;48.956;8.130;2023-06-22T08:47:09;8.13;;;6.80;;
55316;SDS011;41178;48.956;8.130;2023-06-22T08:52:11;8.90;;;6.90;;
55316;SDS011;41178;48.956;8.130;2023-06-22T08:57:13;9.05;;;7.25;;
55316;SDS011;41178;48.956;8.130;2023-06-22T09:02:14;9.60;;;6.47;;
55316;SDS011;41178;48.956;8.130;2023-06-22T09:07:16;9.13;;;6.90;;
55316;SDS011;41178;48.956;8.130;2023-06-22T09:12:23;10.80;;;6.70;;
55316;SDS011;41178;48.956;8.130;2023-06-22T09:17:28;12.40;;;6.60;;
55316;SDS011;41178;48.956;8.130;2023-06-22T09:22:30;9.73;;;6.53;;
55316;SDS011;41178;48.956;8.130;2023-06-22T09:27:32;7.32;;;5.68;;
55316;SDS011;41178;48.956;8.130;2023-06-22T09:32:33;8.50;;;6.35;;
55316;SDS011;41178;48.956;8.130;2023-06-22T09:37:35;6.60;;;4.93;;
55316;SDS011;41178;48.956;8.130;2023-06-22T09:42:37;10.13;;;5.68;;
55316;SDS011;41178;48.956;8.130;2023-06-22T09:47:39;10.18;;;5.85;;
55316;SDS011;41178;48.956;8.130;2023-06-22T09:52:42;8.90;;;4.60;;
55316;SDS011;41178;48.956;8.130;2023-06-22T09:57:49;8.98;;;5.28;;
55316;SDS011;41178;48.956;8.130;2023-06-22T10:02:50;8.10;;;5.88;;
55316;SDS011;41178;48.956;8.130;2023-06-22T10:07:52;10.77;;;6.45;;
55316;SDS011;41178;48.956;8.130;2023-06-22T10:12:55;7.35;;;5.72;;
55316;SDS011;41178;48.956;8.130;2023-06-22T10:17:58;8.00;;;5.70;;
55316;SDS011;41178;48.956;8.130;2023-06-22T10:23:00;8.02;;;5.20;;
55316;SDS011;41178;48.956;8.130;2023-06-22T10:28:02;7.78;;;5.35;;
55316;SDS011;41178;48.956;8.130;2023-06-22T10:33:04;9.15;;;5.20;;
55316;SDS011;41178;48.956;8.130;2023-06-22T10:38:06;9.65;;;5.10;;
55316;SDS011;41178;48.956;8.130;2023-06-22T10:43:08;8.02;;;5.60;;
55316;SDS011;41178;48.956;8.130;2023-06-22T10:48:10;10.30;;;5.60;;
55316;SDS011;41178;48.956;8.130;2023-06-22T10:53:11;7.18;;;5.30;;
55316;SDS011;41178;48.956;8.130;2023-06-22T10:58:13;8.23;;;5.30;;
55316;SDS011;41178;48.956;8.130;2023-06-22T11:06:22;8.90;;;6.63;;
55316;SDS011;41178;48.956;8.130;2023-06-22T11:11:25;9.57;;;6.75;;
55316;SDS011;41178;48.956;8.130;2023-06-22T11:16:27;10.40;;;5.90;;
55316;SDS011;41178;48.956;8.130;2023-06-22T11:21:29;8.85;;;5.60;;
55316;SDS011;41178;48.956;8.130;2023-06-22T11:26:31;7.72;;;5.85;;
55316;SDS011;41178;48.956;8.130;2023-06-22T11:31:34;12.40;;;5.93;;
55316;SDS011;41178;48.956;8.130;2023-06-22T11:36:36;12.13;;;6.60;;
55316;SDS011;41178;48.956;8.130;2023-06-22T11:41:38;12.98;;;5.78;;
55316;SDS011;41178;48.956;8.130;2023-06-22T11:46:39;8.35;;;5.93;;
55316;SDS011;41178;48.956;8.130;2023-06-22T11:51:41;8.77;;;5.57;;
55316;SDS011;41178;48.956;8.130;2023-06-22T11:56:43;12.02;;;5.93;;
55316;SDS011;41178;48.956;8.130;2023-06-22T12:01:45;7.32;;;5.75;;
55316;SDS011;41178;48.956;8.130;2023-06-22T12:06:47;8.55;;;5.95;;
55316;SDS011;41178;48.956;8.130;2023-06-22T12:11:49;9.60;;;5.20;;
55316;SDS011;41178;48.956;8.130;2023-06-22T12:16:50;9.90;;;6.32;;
55316;SDS011;41178;48.956;8.130;2023-06-22T12:21:52;7.78;;;6.30;;
55316;SDS011;41178;48.956;8.130;2023-06-22T12:26:54;9.63;;;6.50;;
55316;SDS011;41178;48.956;8.130;2023-06-22T12:31:56;7.97;;;6.50;;
55316;SDS011;41178;48.956;8.130;2023-06-22T12:36:58;10.73;;;6.40;;
55316;SDS011;41178;48.956;8.130;2023-06-22T12:42:00;8.52;;;6.45;;
55316;SDS011;41178;48.956;8.130;2023-06-22T12:47:02;11.15;;;6.13;;
55316;SDS011;41178;48.956;8.130;2023-06-22T12:52:13;7.50;;;5.47;;
55316;SDS011;41178;48.956;8.130;2023-06-22T12:57:15;13.00;;;5.65;;
55316;SDS011;41178;48.956;8.130;2023-06-22T13:02:17;7.57;;;5.65;;
55316;SDS011;41178;48.956;8.130;2023-06-22T13:07:18;10.45;;;5.40;;
55316;SDS011;41178;48.956;8.130;2023-06-22T13:12:24;10.82;;;6.13;;
55316;SDS011;41178;48.956;8.130;2023-06-22T13:17:26;11.55;;;5.85;;
55316;SDS011;41178;48.956;8.130;2023-06-22T13:27:30;10.70;;;6.07;;
55316;SDS011;41178;48.956;8.130;2023-06-22T13:32:32;10.35;;;5.40;;
55316;SDS011;41178;48.956;8.130;2023-06-22T13:37:34;9.60;;;4.80;;
55316;SDS011;41178;48.956;8.130;2023-06-22T13:42:35;8.38;;;5.25;;
55316;SDS011;41178;48.956;8.130;2023-06-22T13:47:37;11.05;;;5.60;;
55316;SDS011;41178;48.956;8.130;2023-06-22T13:52:39;9.13;;;5.15;;
55316;SDS011;41178;48.956;8.130;2023-06-22T13:57:42;12.18;;;5.50;;
55316;SDS011;41178;48.956;8.130;2023-06-22T14:02:44;9.02;;;5.53;;
55316;SDS011;41178;48.956;8.130;2023-06-22T14:07:46;17.67;;;6.68;;
55316;SDS011;41178;48.956;8.130;2023-06-22T14:12:47;17.23;;;7.88;;
55316;SDS011;41178;48.956;8.130;2023-06-22T14:17:49;11.18;;;5.82;;
55316;SDS011;41178;48.956;8.130;2023-06-22T14:22:51;14.38;;;6.00;;
55316;SDS011;41178;48.956;8.130;2023-06-22T14:27:53;10.00;;;4.80;;
55316;SDS011;41178;48.956;8.130;2023-06-22T14:32:55;8.43;;;4.78;;
55316;SDS011;41178;48.956;8.130;2023-06-22T14:37:56;8.68;;;4.88;;
55316;SDS011;41178;48.956;8.130;2023-06-22T14:42:58;12.52;;;5.70;;
55316;SDS011;41178;48.956;8.130;2023-06-22T14:48:00;8.57;;;5.53;;
55316;SDS011;41178;48.956;8.130;2023-06-22T14:53:02;12.50;;;6.90;;
55316;SDS011;41178;48.956;8.130;2023-06-22T14:58:03;14.02;;;8.32;;
55316;SDS011;41178;48.956;8.130;2023-06-22T15:03:05;13.10;;;7.50;;
55316;SDS011;41178;48.956;8.130;2023-06-22T15:08:09;12.40;;;8.35;;
55316;SDS011;41178;48.956;8.130;2023-06-22T15:13:12;14.73;;;8.32;;
55316;SDS011;41178;48.956;8.130;2023-06-22T15:18:14;13.15;;;8.13;;
55316;SDS011;41178;48.956;8.130;2023-06-22T15:23:16;11.95;;;7.72;;
55316;SDS011;41178;48.956;8.130;2023-06-22T15:28:18;11.38;;;7.60;;
55316;SDS011;41178;48.956;8.130;2023-06-22T15:33:20;9.20;;;7.43;;
55316;SDS011;41178;48.956;8.130;2023-06-22T15:38:22;10.00;;;7.28;;
55316;SDS011;41178;48.956;8.130;2023-06-22T15:43:23;10.30;;;6.57;;
55316;SDS011;41178;48.956;8.130;2023-06-22T15:48:25;11.00;;;5.95;;
55316;SDS011;41178;48.956;8.130;2023-06-22T15:53:28;9.15;;;5.82;;
55316;SDS011;41178;48.956;8.130;2023-06-22T15:58:30;11.25;;;6.57;;
55316;SDS011;41178;48.956;8.130;2023-06-22T16:03:31;9.90;;;5.50;;
55316;SDS011;41178;48.956;8.130;2023-06-22T16:08:33;8.77;;;5.22;;
55316;SDS011;41178;48.956;8.130;2023-06-22T16:13:35;9.88;;;4.65;;
55316;SDS011;41178;48.956;8.130;2023-06-22T16:18:37;9.57;;;4.88;;
55316;SDS011;41178;48.956;8.130;2023-06-22T16:23:39;10.23;;;4.55;;
55316;SDS011;41178;48.956;8.130;2023-06-22T16:28:41;12.35;;;4.30;;
55316;SDS011;41178;48.956;8.130;2023-06-22T16:33:42;10.60;;;3.97;;
55316;SDS011;41178;48.956;8.130;2023-06-22T16:38:48;11.07;;;4.35;;
55316;SDS011;41178;48.956;8.130;2023-06-22T16:43:51;8.70;;;3.75;;
55316;SDS011;41178;48.956;8.130;2023-06-22T16:48:53;10.38;;;4.07;;
55316;SDS011;41178;48.956;8.130;2023-06-22T16:53:55;10.82;;;3.53;;
55316;SDS011;41178;48.956;8.130;2023-06-22T16:58:57;8.18;;;3.25;;
55316;SDS011;41178;48.956;8.130;2023-06-22T17:04:09;8.13;;;3.20;;
55316;SDS011;41178;48.956;8.130;2023-06-22T17:09:12;7.50;;;2.97;;
55316;SDS011;41178;48.956;8.130;2023-06-22T17:14:15;7.18;;;3.17;;
55316;SDS011;41178;48.956;8.130;2023-06-22T17:19:17;8.82;;;3.00;;
55316;SDS011;41178;48.956;8.130;2023-06-22T17:24:20;5.57;;;2.60;;
55316;SDS011;41178;48.956;8.130;2023-06-22T17:29:31;7.45;;;2.95;;
55316;SDS011;41178;48.956;8.130;2023-06-22T17:34:34;6.88;;;3.38;;
55316;SDS011;41178;48.956;8.130;2023-06-22T17:39:36;6.60;;;3.15;;
55316;SDS011;41178;48.956;8.130;2023-06-22T17:44:40;10.90;;;3.80;;
55316;SDS011;41178;48.956;8.130;2023-06-22T17:49:42;6.50;;;2.83;;
55316;SDS011;41178;48.956;8.130;2023-06-22T17:54:44;4.68;;;3.05;;
55316;SDS011;41178;48.956;8.130;2023-06-22T18:00:06;7.03;;;2.78;;
55316;SDS011;41178;48.956;8.130;2023-06-22T18:05:12;6.53;;;2.90;;
55316;SDS011;41178;48.956;8.130;2023-06-22T18:10:14;8.27;;;3.00;;
55316;SDS011;41178;48.956;8.130;2023-06-22T18:15:15;6.18;;;3.00;;
55316;SDS011;41178;48.956;8.130;2023-06-22T18:20:18;10.40;;;2.78;;
55316;SDS011;41178;48.956;8.130;2023-06-22T18:25:23;6.78;;;2.92;;
55316;SDS011;41178;48.956;8.130;2023-06-22T18:30:25;7.00;;;2.92;;
55316;SDS011;41178;48.956;8.130;2023-06-22T18:35:28;4.18;;;2.60;;
55316;SDS011;41178;48.956;8.130;2023-06-22T18:40:31;5.38;;;2.90;;
55316;SDS011;41178;48.956;8.130;2023-06-22T18:45:33;7.43;;;2.75;;
55316;SDS011;41178;48.956;8.130;2023-06-22T18:50:44;6.93;;;2.22;;
55316;SDS011;41178;48.956;8.130;2023-06-22T18:55:49;4.70;;;1.58;;
55316;SDS011;41178;48.956;8.130;2023-06-22T19:01:14;1.55;;;1.40;;
55316;SDS011;41178;48.956;8.130;2023-06-22T19:12:15;3.83;;;2.35;;
55316;SDS011;41178;48.956;8.130;2023-06-22T19:17:18;5.90;;;1.20;;
55316;SDS011;41178;48.956;8.130;2023-06-22T19:22:23;3.65;;;1.23;;
55316;SDS011;41178;48.956;8.130;2023-06-22T19:27:44;2.05;;;1.30;;
55316;SDS011;41178;48.956;8.130;2023-06-22T19:32:52;4.07;;;0.90;;
55316;SDS011;41178;48.956;8.130;2023-06-22T19:37:54;1.30;;;1.20;;
55316;SDS011;41178;48.956;8.130;2023-06-22T19:42:56;1.48;;;1.23;;
55316;SDS011;41178;48.956;8.130;2023-06-22T19:47:58;1.30;;;1.20;;
55316;SDS011;41178;48.956;8.130;2023-06-22T19:53:00;2.45;;;1.20;;
55316;SDS011;41178;48.956;8.130;2023-06-22T19:58:01;1.40;;;1.23;;
55316;SDS011;41178;48.956;8.130;2023-06-22T20:03:06;3.95;;;1.40;;
55316;SDS011;41178;48.956;8.130;2023-06-22T20:08:14;2.30;;;1.40;;
55316;SDS011;41178;48.956;8.130;2023-06-22T20:13:20;5.00;;;1.60;;
55316;SDS011;41178;48.956;8.130;2023-06-22T20:18:22;2.05;;;1.25;;
55316;SDS011;41178;48.956;8.130;2023-06-22T20:23:24;1.60;;;1.33;;
55316;SDS011;41178;48.956;8.130;2023-06-22T20:28:26;2.97;;;1.50;;
55316;SDS011;41178;48.956;8.130;2023-06-22T20:33:28;3.90;;;1.58;;
55316;SDS011;41178;48.956;8.130;2023-06-22T20:38:30;2.75;;;1.48;;
55316;SDS011;41178;48.956;8.130;2023-06-22T20:43:34;2.47;;;1.60;;
55316;SDS011;41178;48.956;8.130;2023-06-22T20:48:36;3.95;;;1.70;;
55316;SDS011;41178;48.956;8.130;2023-06-22T20:53:40;3.22;;;1.80;;
55316;SDS011;41178;48.956;8.130;2023-06-22T20:58:41;2.92;;;1.67;;
55316;SDS011;41178;48.956;8.130;2023-06-22T21:03:43;3.97;;;2.03;;
55316;SDS011;41178;48.956;8.130;2023-06-22T21:08:45;3.38;;;2.00;;
55316;SDS011;41178;48.956;8.130;2023-06-22T21:13:47;2.35;;;2.00;;
55316;SDS011;41178;48.956;8.130;2023-06-22T21:18:49;3.38;;;1.67;;
55316;SDS011;41178;48.956;8.130;2023-06-22T21:23:50;3.55;;;2.08;;
55316;SDS011;41178;48.956;8.130;2023-06-22T21:28:52;2.97;;;1.90;;
55316;SDS011;41178;48.956;8.130;2023-06-22T21:33:54;4.72;;;2.55;;
55316;SDS011;41178;48.956;8.130;2023-06-22T21:38:56;2.45;;;1.80;;
55316;SDS011;41178;48.956;8.130;2023-06-22T21:43:57;2.60;;;2.05;;
55316;SDS011;41178;48.956;8.130;2023-06-22T21:48:59;4.10;;;2.30;;
55316;SDS011;41178;48.956;8.130;2023-06-22T21:54:01;2.50;;;2.08;;
55316;SDS011;41178;48.956;8.130;2023-06-22T21:59:03;2.38;;;2.10;;
55316;SDS011;41178;48.956;8.130;2023-06-22T22:04:04;2.13;;;1.90;;
55316;SDS011;41178;48.956;8.130;2023-06-22T22:09:08;3.55;;;2.42;;
55316;SDS011;41178;48.956;8.130;2023-06-22T22:14:10;3.45;;;2.10;;
55316;SDS011;41178;48.956;8.130;2023-06-22T22:19:12;3.75;;;2.47;;
55316;SDS011;41178;48.956;8.130;2023-06-22T22:24:16;4.60;;;2.88;;
55316;SDS011;41178;48.956;8.130;2023-06-22T22:29:17;3.80;;;2.95;;
55316;SDS011;41178;48.956;8.130;2023-06-22T22:34:19;4.95;;;2.88;;
55316;SDS011;41178;48.956;8.130;2023-06-22T22:44:32;4.38;;;3.97;;
55316;SDS011;41178;48.956;8.130;2023-06-22T22:49:34;4.85;;;3.85;;
55316;SDS011;41178;48.956;8.130;2023-06-22T22:54:35;3.80;;;3.40;;
55316;SDS011;41178;48.956;8.130;2023-06-22T22:59:37;4.10;;;3.70;;
55316;SDS011;41178;48.956;8.130;2023-06-22T23:04:40;5.05;;;4.05;;
55316;SDS011;41178;48.956;8.130;2023-06-22T23:09:42;4.75;;;4.28;;
55316;SDS011;41178;48.956;8.130;2023-06-22T23:14:44;5.28;;;4.03;;
55316;SDS011;41178;48.956;8.130;2023-06-22T23:19:45;5.00;;;3.65;;
55316;SDS011;41178;48.956;8.130;2023-06-22T23:24:48;5.85;;;4.80;;
55316;SDS011;41178;48.956;8.130;2023-06-22T23:29:49;4.65;;;4.25;;
55316;SDS011;41178;48.956;8.130;2023-06-22T23:34:51;3.88;;;3.38;;
55316;SDS011;41178;48.956;8.130;2023-06-22T23:39:53;2.70;;;2.45;;
55316;SDS011;41178;48.956;8.130;2023-06-22T23:44:55;3.80;;;2.85;;
55316;SDS011;41178;48.956;8.130;2023-06-22T23:49:57;3.45;;;3.08;;
55316;SDS011;41178;48.956;8.130;2023-06-22T23:54:58;5.40;;;3.38;;
